createdAt,value
2022-10-17T00:00:18.792Z,988.29
2022-10-17T00:01:18.807Z,988.28
2022-10-17T00:02:18.796Z,988.28
2022-10-17T00:03:18.784Z,988.28
2022-10-17T00:04:18.776Z,988.28
2022-10-17T00:05:18.780Z,988.29
2022-10-17T00:06:18.775Z,988.29
2022-10-17T00:07:18.801Z,988.30
2022-10-17T00:08:18.776Z,988.31
2022-10-17T00:09:18.773Z,988.31
2022-10-17T00:10:18.771Z,988.32
2022-10-17T00:11:18.774Z,988.33
2022-10-17T00:12:18.808Z,988.33
2022-10-17T00:13:18.772Z,988.34
2022-10-17T00:14:18.778Z,988.36
2022-10-17T00:15:18.764Z,988.36
2022-10-17T00:16:18.758Z,988.37
2022-10-17T00:17:18.755Z,988.37
2022-10-17T00:18:18.767Z,988.39
2022-10-17T00:19:18.746Z,988.40
2022-10-17T00:20:18.746Z,988.41
2022-10-17T00:21:18.757Z,988.42
2022-10-17T00:22:18.757Z,988.42
2022-10-17T00:23:18.777Z,988.42
2022-10-17T00:24:18.763Z,988.42
2022-10-17T00:25:18.779Z,988.42
2022-10-17T00:26:18.772Z,988.43
2022-10-17T00:27:18.776Z,988.44
2022-10-17T00:28:18.778Z,988.43
2022-10-17T00:29:18.787Z,988.43
2022-10-17T00:30:18.759Z,988.43
2022-10-17T00:31:18.758Z,988.44
2022-10-17T00:32:18.755Z,988.44
2022-10-17T00:33:18.772Z,988.44
2022-10-17T00:34:18.765Z,988.45
2022-10-17T00:35:18.762Z,988.45
2022-10-17T00:36:18.774Z,988.44
2022-10-17T00:37:18.752Z,988.44
2022-10-17T00:38:18.776Z,988.43
2022-10-17T00:39:18.757Z,988.43
2022-10-17T00:40:18.752Z,988.44
2022-10-17T00:41:18.781Z,988.44
2022-10-17T00:42:18.747Z,988.44
2022-10-17T00:43:18.751Z,988.45
2022-10-17T00:44:18.750Z,988.46
2022-10-17T00:45:18.776Z,988.47
2022-10-17T00:46:18.758Z,988.48
2022-10-17T00:47:18.760Z,988.48
2022-10-17T00:48:22.499Z,988.49
2022-10-17T00:49:18.789Z,988.50
2022-10-17T00:50:18.789Z,988.50
2022-10-17T00:51:18.759Z,988.49
2022-10-17T00:52:18.758Z,988.49
2022-10-17T00:53:18.766Z,988.48
2022-10-17T00:54:18.782Z,988.46
2022-10-17T00:55:18.775Z,988.46
2022-10-17T00:56:18.814Z,988.45
2022-10-17T00:57:18.788Z,988.45
2022-10-17T00:58:18.789Z,988.44
2022-10-17T00:59:18.804Z,988.44
2022-10-17T01:00:18.807Z,988.44
2022-10-17T01:01:18.870Z,988.45
2022-10-17T01:02:18.852Z,988.46
2022-10-17T01:03:18.831Z,988.46
2022-10-17T01:04:18.835Z,988.46
2022-10-17T01:05:18.884Z,988.46
2022-10-17T01:06:18.845Z,988.47
2022-10-17T01:07:18.854Z,988.46
2022-10-17T01:08:18.856Z,988.46
2022-10-17T01:09:18.858Z,988.46
2022-10-17T01:10:18.944Z,988.46
2022-10-17T01:11:18.886Z,988.46
2022-10-17T01:12:18.893Z,988.46
2022-10-17T01:13:18.870Z,988.48
2022-10-17T01:14:18.867Z,988.49
2022-10-17T01:15:18.872Z,988.49
2022-10-17T01:16:18.879Z,988.50
2022-10-17T01:17:18.876Z,988.50
2022-10-17T01:18:18.908Z,988.51
2022-10-17T01:19:18.918Z,988.51
2022-10-17T01:20:18.901Z,988.51
2022-10-17T01:21:18.911Z,988.50
2022-10-17T01:22:18.915Z,988.50
2022-10-17T01:23:18.961Z,988.50
2022-10-17T01:24:18.935Z,988.50
2022-10-17T01:25:18.940Z,988.50
2022-10-17T01:26:18.943Z,988.50
2022-10-17T01:27:18.952Z,988.50
2022-10-17T01:28:18.983Z,988.49
2022-10-17T01:29:18.971Z,988.50
2022-10-17T01:30:18.970Z,988.50
2022-10-17T01:31:19.003Z,988.51
2022-10-17T01:32:18.991Z,988.51
2022-10-17T01:33:19.027Z,988.51
2022-10-17T01:34:19.043Z,988.53
2022-10-17T01:35:19.038Z,988.54
2022-10-17T01:36:19.056Z,988.54
2022-10-17T01:37:19.095Z,988.54
2022-10-17T01:38:19.075Z,988.54
2022-10-17T01:39:19.117Z,988.54
2022-10-17T01:40:19.121Z,988.54
2022-10-17T01:41:19.104Z,988.54
2022-10-17T01:42:19.114Z,988.53
2022-10-17T01:43:19.123Z,988.53
2022-10-17T01:44:19.140Z,988.52
2022-10-17T01:45:19.181Z,988.51
2022-10-17T01:46:19.177Z,988.51
2022-10-17T01:47:19.174Z,988.49
2022-10-17T01:48:19.179Z,988.48
2022-10-17T01:49:19.193Z,988.47
2022-10-17T01:50:19.203Z,988.46
2022-10-17T01:51:19.248Z,988.45
2022-10-17T01:52:19.234Z,988.44
2022-10-17T01:53:19.264Z,988.45
2022-10-17T01:54:19.259Z,988.45
2022-10-17T01:55:19.271Z,988.44
2022-10-17T01:56:19.289Z,988.44
2022-10-17T01:57:19.304Z,988.45
2022-10-17T01:58:19.356Z,988.46
2022-10-17T01:59:19.340Z,988.46
2022-10-17T02:00:19.358Z,988.45
2022-10-17T02:01:19.425Z,988.45
2022-10-17T02:02:19.389Z,988.44
2022-10-17T02:03:19.423Z,988.44
2022-10-17T02:04:19.416Z,988.43
2022-10-17T02:05:19.436Z,988.43
2022-10-17T02:06:19.441Z,988.41
2022-10-17T02:07:19.452Z,988.40
2022-10-17T02:08:19.489Z,988.38
2022-10-17T02:09:19.490Z,988.37
2022-10-17T02:10:19.483Z,988.36
2022-10-17T02:11:19.488Z,988.34
2022-10-17T02:12:19.504Z,988.34
2022-10-17T02:13:19.516Z,988.34
2022-10-17T02:14:19.556Z,988.34
2022-10-17T02:15:19.545Z,988.35
2022-10-17T02:16:19.568Z,988.35
2022-10-17T02:17:19.579Z,988.34
2022-10-17T02:18:19.624Z,988.35
2022-10-17T02:19:19.613Z,988.34
2022-10-17T02:20:19.629Z,988.35
2022-10-17T02:21:19.669Z,988.34
2022-10-17T02:22:19.662Z,988.34
2022-10-17T02:24:19.691Z,988.33
2022-10-17T02:25:19.702Z,988.33
2022-10-17T02:26:19.742Z,988.33
2022-10-17T02:27:19.766Z,988.32
2022-10-17T02:28:19.752Z,988.31
2022-10-17T02:29:19.760Z,988.30
2022-10-17T02:30:19.769Z,988.29
2022-10-17T02:31:19.783Z,988.29
2022-10-17T02:32:22.906Z,988.28
2022-10-17T02:33:19.811Z,988.28
2022-10-17T02:34:19.831Z,988.28
2022-10-17T02:35:19.846Z,988.28
2022-10-17T02:36:19.865Z,988.29
2022-10-17T02:37:19.934Z,988.29
2022-10-17T02:38:19.924Z,988.28
2022-10-17T02:39:19.917Z,988.29
2022-10-17T02:40:19.969Z,988.30
2022-10-17T02:41:19.964Z,988.31
2022-10-17T02:42:19.991Z,988.31
2022-10-17T02:43:20.008Z,988.33
2022-10-17T02:44:20.006Z,988.34
2022-10-17T02:45:20.021Z,988.35
2022-10-17T02:46:20.045Z,988.37
2022-10-17T02:47:20.097Z,988.38
2022-10-17T02:48:20.085Z,988.39
2022-10-17T02:49:20.100Z,988.39
2022-10-17T02:50:20.164Z,988.39
2022-10-17T02:51:20.135Z,988.40
2022-10-17T02:52:20.176Z,988.40
2022-10-17T02:53:20.169Z,988.42
2022-10-17T02:54:20.221Z,988.43
2022-10-17T02:55:20.203Z,988.43
2022-10-17T02:56:20.244Z,988.44
2022-10-17T02:57:20.239Z,988.45
2022-10-17T02:58:20.280Z,988.46
2022-10-17T02:59:20.398Z,988.47
2022-10-17T03:00:20.288Z,988.47
2022-10-17T03:01:20.382Z,988.49
2022-10-17T03:02:20.310Z,988.50
2022-10-17T03:03:20.343Z,988.50
2022-10-17T03:04:20.330Z,988.51
2022-10-17T03:05:20.337Z,988.53
2022-10-17T03:06:20.353Z,988.53
2022-10-17T03:07:20.360Z,988.53
2022-10-17T03:08:20.398Z,988.53
2022-10-17T03:09:20.426Z,988.54
2022-10-17T03:10:20.401Z,988.55
2022-10-17T03:11:20.410Z,988.56
2022-10-17T03:12:20.463Z,988.56
2022-10-17T03:13:20.432Z,988.55
2022-10-17T03:14:20.470Z,988.56
2022-10-17T03:15:20.472Z,988.57
2022-10-17T03:16:20.473Z,988.56
2022-10-17T03:17:20.508Z,988.57
2022-10-17T03:18:20.497Z,988.59
2022-10-17T03:19:20.504Z,988.59
2022-10-17T03:20:20.545Z,988.60
2022-10-17T03:21:20.534Z,988.63
2022-10-17T03:22:20.552Z,988.64
2022-10-17T03:23:20.578Z,988.65
2022-10-17T03:24:20.599Z,988.66
2022-10-17T03:25:20.646Z,988.67
2022-10-17T03:26:20.668Z,988.69
2022-10-17T03:27:20.662Z,988.69
2022-10-17T03:28:20.801Z,988.69
2022-10-17T03:29:20.710Z,988.69
2022-10-17T03:30:20.737Z,988.71
2022-10-17T03:31:20.757Z,988.71
2022-10-17T03:32:20.783Z,988.73
2022-10-17T03:33:20.825Z,988.72
2022-10-17T03:34:20.826Z,988.72
2022-10-17T03:35:20.849Z,988.72
2022-10-17T03:36:20.887Z,988.73
2022-10-17T03:37:20.926Z,988.74
2022-10-17T03:38:20.911Z,988.75
2022-10-17T03:39:20.922Z,988.76
2022-10-17T03:40:20.949Z,988.77
2022-10-17T03:41:20.960Z,988.77
2022-10-17T03:42:21.013Z,988.78
2022-10-17T03:43:21.001Z,988.78
2022-10-17T03:44:21.023Z,988.80
2022-10-17T03:45:21.034Z,988.81
2022-10-17T03:46:21.057Z,988.83
2022-10-17T03:47:21.092Z,988.84
2022-10-17T03:48:21.091Z,988.84
2022-10-17T03:49:21.100Z,988.84
2022-10-17T03:50:21.146Z,988.84
2022-10-17T03:51:21.134Z,988.85
2022-10-17T03:52:21.162Z,988.85
2022-10-17T03:53:21.205Z,988.86
2022-10-17T03:54:21.202Z,988.88
2022-10-17T03:55:21.202Z,988.89
2022-10-17T03:56:21.213Z,988.89
2022-10-17T03:57:21.220Z,988.91
2022-10-17T03:58:21.258Z,988.91
2022-10-17T03:59:21.247Z,988.91
2022-10-17T04:00:21.279Z,988.91
2022-10-17T04:01:21.359Z,988.93
2022-10-17T04:02:21.299Z,988.94
2022-10-17T04:03:21.325Z,988.95
2022-10-17T04:04:21.318Z,988.97
2022-10-17T04:05:21.334Z,988.98
2022-10-17T04:06:21.353Z,988.98
2022-10-17T04:07:21.416Z,988.97
2022-10-17T04:08:21.409Z,988.97
2022-10-17T04:09:21.414Z,988.97
2022-10-17T04:10:21.419Z,988.97
2022-10-17T04:11:21.429Z,988.98
2022-10-17T04:12:21.453Z,988.99
2022-10-17T04:13:21.459Z,989.00
2022-10-17T04:14:21.512Z,989.00
2022-10-17T04:15:21.504Z,989.02
2022-10-17T04:16:21.521Z,989.02
2022-10-17T04:17:21.545Z,989.01
2022-10-17T04:18:21.569Z,989.02
2022-10-17T04:19:21.608Z,989.02
2022-10-17T04:20:21.613Z,989.04
2022-10-17T04:21:21.625Z,989.05
2022-10-17T04:22:21.647Z,989.06
2022-10-17T04:23:21.672Z,989.06
2022-10-17T04:24:21.717Z,989.07
2022-10-17T04:25:21.726Z,989.07
2022-10-17T04:26:21.729Z,989.06
2022-10-17T04:27:21.750Z,989.06
2022-10-17T04:28:21.898Z,989.06
2022-10-17T04:29:21.791Z,989.06
2022-10-17T04:30:21.839Z,989.07
2022-10-17T04:31:21.850Z,989.08
2022-10-17T04:32:21.950Z,989.09
2022-10-17T04:33:21.931Z,989.09
2022-10-17T04:34:20.938Z,989.09
2022-10-17T04:35:21.969Z,989.09
2022-10-17T04:36:21.960Z,989.10
2022-10-17T04:37:21.981Z,989.11
2022-10-17T04:38:26.242Z,989.11
2022-10-17T04:39:22.031Z,989.11
2022-10-17T04:40:22.086Z,989.11
2022-10-17T04:41:22.064Z,989.11
2022-10-17T04:42:22.088Z,989.10
2022-10-17T04:43:22.105Z,989.09
2022-10-17T04:44:22.132Z,989.08
2022-10-17T04:45:22.184Z,989.07
2022-10-17T04:46:22.184Z,989.06
2022-10-17T04:47:22.210Z,989.06
2022-10-17T04:48:22.201Z,989.06
2022-10-17T04:49:22.216Z,989.07
2022-10-17T04:50:22.240Z,989.06
2022-10-17T04:51:24.600Z,989.07
2022-10-17T04:52:22.287Z,989.09
2022-10-17T04:53:22.278Z,989.09
2022-10-17T04:54:22.300Z,989.10
2022-10-17T04:55:22.340Z,989.11
2022-10-17T04:56:22.355Z,989.11
2022-10-17T04:57:22.395Z,989.12
2022-10-17T04:58:22.406Z,989.14
2022-10-17T04:59:22.438Z,989.15
2022-10-17T05:00:22.467Z,989.16
2022-10-17T05:01:22.551Z,989.16
2022-10-17T05:02:22.538Z,989.16
2022-10-17T05:03:22.545Z,989.17
2022-10-17T05:04:24.820Z,989.17
2022-10-17T05:05:22.605Z,989.17
2022-10-17T05:06:22.667Z,989.18
2022-10-17T05:07:22.652Z,989.20
2022-10-17T05:08:22.685Z,989.20
2022-10-17T05:09:22.661Z,989.21
2022-10-17T05:10:22.747Z,989.20
2022-10-17T05:11:22.810Z,989.19
2022-10-17T05:12:22.751Z,989.18
2022-10-17T05:13:22.790Z,989.17
2022-10-17T05:14:22.869Z,989.17
2022-10-17T05:15:22.881Z,989.16
2022-10-17T05:16:22.910Z,989.16
2022-10-17T05:17:22.950Z,989.16
2022-10-17T05:18:23.019Z,989.16
2022-10-17T05:19:22.950Z,989.17
2022-10-17T05:20:22.969Z,989.17
2022-10-17T05:21:23.070Z,989.18
2022-10-17T05:22:23.021Z,989.18
2022-10-17T05:23:23.062Z,989.19
2022-10-17T05:24:23.094Z,989.21
2022-10-17T05:25:23.121Z,989.22
2022-10-17T05:26:23.130Z,989.23
2022-10-17T05:27:23.147Z,989.26
2022-10-17T05:28:23.203Z,989.27
2022-10-17T05:29:23.188Z,989.28
2022-10-17T05:30:23.241Z,989.28
2022-10-17T05:31:23.230Z,989.29
2022-10-17T05:32:23.321Z,989.30
2022-10-17T05:33:23.296Z,989.30
2022-10-17T05:34:23.303Z,989.31
2022-10-17T05:35:23.365Z,989.32
2022-10-17T05:36:23.373Z,989.33
2022-10-17T05:37:23.363Z,989.34
2022-10-17T05:38:23.402Z,989.35
2022-10-17T05:39:23.406Z,989.35
2022-10-17T05:40:23.459Z,989.36
2022-10-17T05:41:23.441Z,989.36
2022-10-17T05:42:23.536Z,989.36
2022-10-17T05:43:23.483Z,989.37
2022-10-17T05:44:23.515Z,989.37
2022-10-17T05:45:23.553Z,989.37
2022-10-17T05:46:23.543Z,989.36
2022-10-17T05:47:23.564Z,989.37
2022-10-17T05:48:23.581Z,989.38
2022-10-17T05:49:33.235Z,989.38
2022-10-17T05:50:23.647Z,989.40
2022-10-17T05:51:23.651Z,989.41
2022-10-17T05:52:23.661Z,989.42
2022-10-17T05:53:23.671Z,989.42
2022-10-17T05:54:23.687Z,989.42
2022-10-17T05:55:23.699Z,989.41
2022-10-17T05:56:23.748Z,989.41
2022-10-17T05:57:23.727Z,989.41
2022-10-17T05:58:45.397Z,989.41
2022-10-17T05:59:23.818Z,989.41
2022-10-17T06:00:23.786Z,989.42
2022-10-17T06:01:23.808Z,989.43
2022-10-17T06:02:23.858Z,989.45
2022-10-17T06:03:23.842Z,989.46
2022-10-17T06:04:23.883Z,989.47
2022-10-17T06:05:23.890Z,989.48
2022-10-17T06:06:23.957Z,989.49
2022-10-17T06:07:23.969Z,989.50
2022-10-17T06:08:23.961Z,989.53
2022-10-17T06:09:23.975Z,989.55
2022-10-17T06:10:24.022Z,989.56
2022-10-17T06:11:24.008Z,989.59
2022-10-17T06:12:24.066Z,989.60
2022-10-17T06:13:24.063Z,989.62
2022-10-17T06:14:24.079Z,989.64
2022-10-17T06:15:24.112Z,989.66
2022-10-17T06:16:30.711Z,989.66
2022-10-17T06:17:24.176Z,989.66
2022-10-17T06:18:24.203Z,989.66
2022-10-17T06:19:24.214Z,989.66
2022-10-17T06:20:24.236Z,989.67
2022-10-17T06:21:24.258Z,989.67
2022-10-17T06:22:24.293Z,989.68
2022-10-17T06:23:24.301Z,989.69
2022-10-17T06:24:24.390Z,989.69
2022-10-17T06:25:24.348Z,989.70
2022-10-17T06:26:24.373Z,989.72
2022-10-17T06:27:24.407Z,989.72
2022-10-17T06:28:24.464Z,989.72
2022-10-17T06:29:24.419Z,989.73
2022-10-17T06:30:24.441Z,989.73
2022-10-17T06:31:24.482Z,989.73
2022-10-17T06:32:24.455Z,989.74
2022-10-17T06:33:24.465Z,989.73
2022-10-17T06:34:24.470Z,989.74
2022-10-17T06:35:24.508Z,989.75
2022-10-17T06:36:24.492Z,989.76
2022-10-17T06:37:24.508Z,989.75
2022-10-17T06:38:24.521Z,989.75
2022-10-17T06:39:24.541Z,989.76
2022-10-17T06:40:24.541Z,989.77
2022-10-17T06:41:24.572Z,989.78
2022-10-17T06:42:24.563Z,989.79
2022-10-17T06:43:27.738Z,989.80
2022-10-17T06:44:24.594Z,989.81
2022-10-17T06:45:24.606Z,989.83
2022-10-17T06:46:24.594Z,989.85
2022-10-17T06:47:24.610Z,989.88
2022-10-17T06:48:24.616Z,989.91
2022-10-17T06:49:24.640Z,989.93
2022-10-17T06:50:24.630Z,989.94
2022-10-17T06:51:24.648Z,989.95
2022-10-17T06:52:24.656Z,989.96
2022-10-17T06:53:24.652Z,989.98
2022-10-17T06:54:24.661Z,990.00
2022-10-17T06:55:24.703Z,990.02
2022-10-17T06:56:24.672Z,990.04
2022-10-17T06:57:24.694Z,990.06
2022-10-17T06:58:24.692Z,990.07
2022-10-17T06:59:24.712Z,990.07
2022-10-17T07:00:24.705Z,990.07
2022-10-17T07:01:24.718Z,990.08
2022-10-17T07:02:24.698Z,990.08
2022-10-17T07:03:24.697Z,990.09
2022-10-17T07:04:24.696Z,990.09
2022-10-17T07:05:24.707Z,990.10
2022-10-17T07:06:24.689Z,990.11
2022-10-17T07:07:24.695Z,990.13
2022-10-17T07:08:24.686Z,990.15
2022-10-17T07:09:24.673Z,990.16
2022-10-17T07:10:24.664Z,990.17
2022-10-17T07:11:24.673Z,990.18
2022-10-17T07:12:24.662Z,990.19
2022-10-17T07:13:24.642Z,990.20
2022-10-17T07:14:24.644Z,990.20
2022-10-17T07:15:24.617Z,990.21
2022-10-17T07:16:24.593Z,990.21
2022-10-17T07:17:24.577Z,990.22
2022-10-17T07:18:24.554Z,990.23
2022-10-17T07:19:24.540Z,990.22
2022-10-17T07:20:24.526Z,990.22
2022-10-17T07:21:24.494Z,990.22
2022-10-17T07:22:24.461Z,990.21
2022-10-17T07:23:24.451Z,990.19
2022-10-17T07:24:24.424Z,990.18
2022-10-17T07:25:24.395Z,990.16
2022-10-17T07:26:24.364Z,990.15
2022-10-17T07:27:24.338Z,990.14
2022-10-17T07:28:24.358Z,990.15
2022-10-17T07:29:24.302Z,990.16
2022-10-17T07:30:24.258Z,990.18
2022-10-17T07:31:24.351Z,990.20
2022-10-17T07:32:24.204Z,990.23
2022-10-17T07:33:24.181Z,990.25
2022-10-17T07:34:24.143Z,990.28
2022-10-17T07:35:24.227Z,990.31
2022-10-17T07:36:24.082Z,990.33
2022-10-17T07:37:24.059Z,990.36
2022-10-17T07:38:24.025Z,990.36
2022-10-17T07:39:23.994Z,990.35
2022-10-17T07:40:23.993Z,990.34
2022-10-17T07:41:23.936Z,990.31
2022-10-17T07:42:23.926Z,990.29
2022-10-17T07:43:23.904Z,990.26
2022-10-17T07:44:23.848Z,990.23
2022-10-17T07:45:23.812Z,990.22
2022-10-17T07:46:23.774Z,990.22
2022-10-17T07:47:23.747Z,990.22
2022-10-17T07:48:23.739Z,990.23
2022-10-17T07:49:23.679Z,990.25
2022-10-17T07:50:23.638Z,990.27
2022-10-17T07:51:23.597Z,990.29
2022-10-17T07:52:23.553Z,990.32
2022-10-17T07:53:23.534Z,990.35
2022-10-17T07:54:23.473Z,990.37
2022-10-17T07:55:23.431Z,990.39
2022-10-17T07:56:23.385Z,990.40
2022-10-17T07:57:23.348Z,990.40
2022-10-17T07:58:23.293Z,990.38
2022-10-17T07:59:23.255Z,990.37
2022-10-17T08:00:23.203Z,990.36
2022-10-17T08:01:23.154Z,990.34
2022-10-17T08:02:23.092Z,990.34
2022-10-17T08:03:23.052Z,990.33
2022-10-17T08:04:22.966Z,990.33
2022-10-17T08:05:22.913Z,990.32
2022-10-17T08:06:22.862Z,990.32
2022-10-17T08:07:26.877Z,990.31
2022-10-17T08:08:22.748Z,990.32
2022-10-17T08:09:22.687Z,990.31
2022-10-17T08:10:22.621Z,990.31
2022-10-17T08:11:22.577Z,990.30
2022-10-17T08:12:22.518Z,990.31
2022-10-17T08:13:22.428Z,990.30
2022-10-17T08:14:22.360Z,990.31
2022-10-17T08:15:22.285Z,990.31
2022-10-17T08:16:22.220Z,990.30
2022-10-17T08:17:22.153Z,990.31
2022-10-17T08:18:22.086Z,990.31
2022-10-17T08:19:21.996Z,990.32
2022-10-17T08:20:21.937Z,990.33
2022-10-17T08:21:21.843Z,990.33
2022-10-17T08:22:21.762Z,990.33
2022-10-17T08:23:21.682Z,990.34
2022-10-17T08:24:21.587Z,990.34
2022-10-17T08:25:21.498Z,990.33
2022-10-17T08:26:21.408Z,990.34
2022-10-17T08:27:21.322Z,990.35
2022-10-17T08:28:21.472Z,990.33
2022-10-17T08:29:21.143Z,990.34
2022-10-17T08:30:21.047Z,990.35
2022-10-17T08:31:20.961Z,990.35
2022-10-17T08:32:20.842Z,990.36
2022-10-17T08:33:20.768Z,990.36
2022-10-17T08:34:20.659Z,990.36
2022-10-17T08:35:20.554Z,990.37
2022-10-17T08:36:20.455Z,990.36
2022-10-17T08:37:20.371Z,990.36
2022-10-17T08:38:21.120Z,990.36
2022-10-17T08:39:20.144Z,990.35
2022-10-17T08:40:20.061Z,990.33
2022-10-17T08:41:19.934Z,990.33
2022-10-17T08:42:19.817Z,990.32
2022-10-17T08:43:19.756Z,990.32
2022-10-17T08:44:19.609Z,990.29
2022-10-17T08:45:19.483Z,990.27
2022-10-17T08:46:19.366Z,990.26
2022-10-17T08:47:19.238Z,990.23
2022-10-17T08:48:19.129Z,990.22
2022-10-17T08:49:19.015Z,990.22
2022-10-17T08:50:18.908Z,990.21
2022-10-17T08:51:18.764Z,990.19
2022-10-17T08:52:18.679Z,990.19
2022-10-17T08:53:18.524Z,990.18
2022-10-17T08:54:18.400Z,990.19
2022-10-17T08:56:19.944Z,990.17
2022-10-17T08:57:18.021Z,990.19
2022-10-17T08:58:17.889Z,990.21
2022-10-17T08:59:17.759Z,990.22
2022-10-17T09:00:17.638Z,990.21
2022-10-17T09:01:17.549Z,990.21
2022-10-17T09:02:17.412Z,990.21
2022-10-17T09:03:17.316Z,990.20
2022-10-17T09:04:17.244Z,990.19
2022-10-17T09:05:17.038Z,990.19
2022-10-17T09:06:16.912Z,990.19
2022-10-17T09:07:16.865Z,990.18
2022-10-17T09:08:16.668Z,990.18
2022-10-17T09:09:16.555Z,990.19
2022-10-17T09:10:16.425Z,990.18
2022-10-17T09:11:16.310Z,990.18
2022-10-17T09:12:16.212Z,990.19
2022-10-17T09:13:16.071Z,990.19
2022-10-17T09:14:15.947Z,990.21
2022-10-17T09:15:15.811Z,990.21
2022-10-17T09:16:15.700Z,990.22
2022-10-17T09:17:15.697Z,990.22
2022-10-17T09:18:17.575Z,990.22
2022-10-17T09:19:15.317Z,990.22
2022-10-17T09:20:15.188Z,990.22
2022-10-17T09:21:15.068Z,990.21
2022-10-17T09:22:14.937Z,990.21
2022-10-17T09:23:14.826Z,990.20
2022-10-17T09:24:16.151Z,990.19
2022-10-17T09:25:14.547Z,990.18
2022-10-17T09:26:14.417Z,990.18
2022-10-17T09:27:14.272Z,990.17
2022-10-17T09:28:14.138Z,990.16
2022-10-17T09:29:13.996Z,990.16
2022-10-17T09:30:27.046Z,990.15
2022-10-17T09:31:13.728Z,990.15
2022-10-17T09:32:13.586Z,990.14
2022-10-17T09:33:23.260Z,990.14
2022-10-17T09:34:13.347Z,990.13
2022-10-17T09:35:13.267Z,990.13
2022-10-17T09:36:13.041Z,990.13
2022-10-17T09:37:12.849Z,990.13
2022-10-17T09:38:12.712Z,990.13
2022-10-17T09:39:12.568Z,990.14
2022-10-17T09:40:12.416Z,990.13
2022-10-17T09:41:39.330Z,990.14
2022-10-17T09:42:12.115Z,990.14
2022-10-17T09:43:11.952Z,990.14
2022-10-17T09:44:11.779Z,990.14
2022-10-17T09:45:11.630Z,990.13
2022-10-17T09:46:11.451Z,990.15
2022-10-17T09:47:11.323Z,990.12
2022-10-17T09:48:11.132Z,990.13
2022-10-17T09:49:13.458Z,990.12
2022-10-17T09:50:10.846Z,990.13
2022-10-17T09:51:21.942Z,990.13
2022-10-17T09:52:10.499Z,990.13
2022-10-17T09:53:10.322Z,990.13
2022-10-17T09:54:10.177Z,990.13
2022-10-17T09:55:10.009Z,990.14
2022-10-17T09:56:09.851Z,990.13
2022-10-17T09:57:09.737Z,990.13
2022-10-17T09:58:09.563Z,990.14
2022-10-17T09:59:13.642Z,990.12
2022-10-17T10:00:09.288Z,990.11
2022-10-17T10:01:09.151Z,990.09
2022-10-17T10:02:08.928Z,990.08
2022-10-17T10:03:08.775Z,990.08
2022-10-17T10:04:08.598Z,990.08
2022-10-17T10:05:08.459Z,990.09
2022-10-17T10:06:08.286Z,990.10
2022-10-17T10:07:08.137Z,990.09
2022-10-17T10:08:07.995Z,990.09
2022-10-17T10:09:07.807Z,990.09
2022-10-17T10:10:07.644Z,990.08
2022-10-17T10:11:07.918Z,990.10
2022-10-17T10:12:07.316Z,990.06
2022-10-17T10:13:07.199Z,990.07
2022-10-17T10:14:06.975Z,990.08
2022-10-17T10:15:06.845Z,990.08
2022-10-17T10:16:06.641Z,990.08
2022-10-17T10:17:06.488Z,990.08
2022-10-17T10:18:06.307Z,990.07
2022-10-17T10:19:08.420Z,990.06
2022-10-17T10:20:05.980Z,990.07
2022-10-17T10:21:05.804Z,990.06
2022-10-17T10:22:05.638Z,990.04
2022-10-17T10:23:05.445Z,990.03
2022-10-17T10:24:05.303Z,990.02
2022-10-17T10:25:05.115Z,990.02
2022-10-17T10:26:04.978Z,990.00
2022-10-17T10:27:04.818Z,990.01
2022-10-17T10:28:04.631Z,990.00
2022-10-17T10:29:04.474Z,990.01
2022-10-17T10:30:04.283Z,990.01
2022-10-17T10:31:04.114Z,990.02
2022-10-17T10:32:03.969Z,990.03
2022-10-17T10:33:03.814Z,990.04
2022-10-17T10:34:03.622Z,990.05
2022-10-17T10:35:03.474Z,990.04
2022-10-17T10:36:03.318Z,990.06
2022-10-17T10:37:03.123Z,990.07
2022-10-17T10:38:02.972Z,990.06
2022-10-17T10:39:04.652Z,990.07
2022-10-17T10:40:02.736Z,990.06
2022-10-17T10:41:02.461Z,990.06
2022-10-17T10:42:02.316Z,990.05
2022-10-17T10:43:05.464Z,990.05
2022-10-17T10:44:01.947Z,990.04
2022-10-17T10:45:01.791Z,990.03
2022-10-17T10:46:01.641Z,990.02
2022-10-17T10:47:01.471Z,990.00
2022-10-17T10:48:01.301Z,990.00
2022-10-17T10:49:01.127Z,990.00
2022-10-17T10:50:00.973Z,989.99
2022-10-17T10:51:00.777Z,989.99
2022-10-17T10:52:00.647Z,989.98
2022-10-17T10:53:00.459Z,989.98
2022-10-17T10:54:00.259Z,990.00
2022-10-17T10:55:00.118Z,990.02
2022-10-17T10:55:59.926Z,989.97
2022-10-17T10:56:59.735Z,990.02
2022-10-17T10:57:59.585Z,990.02
2022-10-17T10:58:59.405Z,990.01
2022-10-17T10:59:59.244Z,989.99
2022-10-17T11:00:59.137Z,989.98
2022-10-17T11:01:58.924Z,989.96
2022-10-17T11:03:00.452Z,989.98
2022-10-17T11:03:58.599Z,989.96
2022-10-17T11:04:58.411Z,989.95
2022-10-17T11:05:58.220Z,989.92
2022-10-17T11:06:58.048Z,989.91
2022-10-17T11:07:57.934Z,989.91
2022-10-17T11:08:57.719Z,989.90
2022-10-17T11:09:57.544Z,989.90
2022-10-17T11:10:57.364Z,989.90
2022-10-17T11:11:57.185Z,989.89
2022-10-17T11:12:57.021Z,989.88
2022-10-17T11:13:56.861Z,989.89
2022-10-17T11:14:56.669Z,989.89
2022-10-17T11:15:56.523Z,989.89
2022-10-17T11:16:56.350Z,989.88
2022-10-17T11:17:56.179Z,989.88
2022-10-17T11:18:56.035Z,989.87
2022-10-17T11:19:55.908Z,989.86
2022-10-17T11:20:55.725Z,989.85
2022-10-17T11:21:55.553Z,989.85
2022-10-17T11:22:55.421Z,989.84
2022-10-17T11:23:55.243Z,989.85
2022-10-17T11:24:55.078Z,989.85
2022-10-17T11:25:54.943Z,989.85
2022-10-17T11:26:54.768Z,989.84
2022-10-17T11:27:54.612Z,989.85
2022-10-17T11:28:54.561Z,989.82
2022-10-17T11:29:54.328Z,989.83
2022-10-17T11:30:54.160Z,989.81
2022-10-17T11:31:53.973Z,989.85
2022-10-17T11:32:53.802Z,989.83
2022-10-17T11:33:53.656Z,989.82
2022-10-17T11:34:53.488Z,989.83
2022-10-17T11:35:53.379Z,989.82
2022-10-17T11:36:53.163Z,989.83
2022-10-17T11:37:53.001Z,989.82
2022-10-17T11:38:52.852Z,989.83
2022-10-17T11:39:52.694Z,989.85
2022-10-17T11:40:52.524Z,989.86
2022-10-17T11:41:55.135Z,989.86
2022-10-17T11:42:52.192Z,989.86
2022-10-17T11:43:52.027Z,989.86
2022-10-17T11:44:51.862Z,989.86
2022-10-17T11:45:51.846Z,989.84
2022-10-17T11:46:51.532Z,989.85
2022-10-17T11:47:51.373Z,989.83
2022-10-17T11:48:51.203Z,989.84
2022-10-17T11:49:51.580Z,989.84
2022-10-17T11:52:05.165Z,989.83
2022-10-17T11:52:56.537Z,989.83
2022-10-17T11:53:50.430Z,989.83
2022-10-17T11:54:50.270Z,989.83
2022-10-17T11:55:50.120Z,989.83
2022-10-17T11:56:49.984Z,989.84
2022-10-17T11:57:49.823Z,989.85
2022-10-17T11:58:49.649Z,989.85
2022-10-17T11:59:49.494Z,989.86
2022-10-17T12:00:49.814Z,989.88
2022-10-17T12:01:49.182Z,989.85
2022-10-17T12:02:49.045Z,989.85
2022-10-17T12:03:48.852Z,989.84
2022-10-17T12:04:49.822Z,989.84
2022-10-17T12:05:48.535Z,989.84
2022-10-17T12:06:48.364Z,989.82
2022-10-17T12:07:48.205Z,989.82
2022-10-17T12:08:48.022Z,989.80
2022-10-17T12:09:47.851Z,989.84
2022-10-17T12:10:47.684Z,989.84
2022-10-17T12:11:47.520Z,989.82
2022-10-17T12:12:47.359Z,989.82
2022-10-17T12:13:47.280Z,989.83
2022-10-17T12:14:47.021Z,989.84
2022-10-17T12:15:46.866Z,989.85
2022-10-17T12:16:53.175Z,989.84
2022-10-17T12:17:46.536Z,989.83
2022-10-17T12:18:46.374Z,989.81
2022-10-17T12:19:46.201Z,989.79
2022-10-17T12:20:46.048Z,989.78
2022-10-17T12:21:45.875Z,989.77
2022-10-17T12:22:45.691Z,989.76
2022-10-17T12:23:45.532Z,989.76
2022-10-17T12:24:45.377Z,989.78
2022-10-17T12:25:45.180Z,989.78
2022-10-17T12:26:44.995Z,989.80
2022-10-17T12:27:44.824Z,989.81
2022-10-17T12:28:44.696Z,989.82
2022-10-17T12:29:44.478Z,989.82
2022-10-17T12:30:44.319Z,989.79